メインページ
METAR-TAF:

METAR-TAF

空港 :

フォス・ド・イグアス, パラナ州, ブラジル

フォス・ド・イグアス国際空港

緯度: 25-31S, 経度: 054-35W, 海抜: 180m

現時点の気象観測

当レポートは1時間16分前の05:00(UTC)に作成
南東の風 3kt
気温 20°C
湿度 100%
気圧 1014 hPa
視程10km以上
1,500メートル以下は雲なし、積乱雲なし

METAR: SBFI 280500Z 14003KT CAVOK 20/20 Q1014

時間: 03:16 (06:16 UTC)

予報

当レポートは3時間16分前の03:00(UTC)に作成
予報は28日の 06時(UTC)から 29日の 06時(UTC)まで有効
東/南東の風 6kt
視程10km以上
1,500メートル以下は雲なし、積乱雲なし
確率 40%
28日の 08時(UTC)から 28日の 11時(UTC)まで
視程: 3000m
散在霧, 靄
28日の 12時(UTC)から 28日の 14時(UTC)まで徐々に
の風 8kt
視程10km以上
高度4000ftの雲は散在している
28日の 21時(UTC)から 28日の 23時(UTC)まで徐々に
の風 5kt
視程10km以上
1,500メートル以下は雲なし、積乱雲なし

TAF: SBFI 280300Z 2806/2906 11006KT CAVOK TN20/2809Z TX31/2818Z PROB40 2808/2811 3000 BCFG BR NSC BECMG 2812/2814 10008KT 9999 SCT040 BECMG 2821/2823 10005KT CAVOK RMK PDJ

4,000以上の空港の気象観測と天気予報(METAR報とTAF報)

利用可能な観測所は地図上に黄色い丸と赤い丸で示す。

丸の上にカーソルを重ねると観測所名を参照できる。

次にクリックすると気象観測と天気予報を参照できる。

マップの切り替え:黒色「×」印の緑ボタンをクリックして拡大、「-」印の緑ボタンをクリックして縮小、緑色の三角印をクリックして隣りの地図に切り替え


METAR-TAF: